1°C Temp
'.PHP_EOL;
-9°C Dewpoint
48% Humidity
Temperature
5 KM/H
3 MPH
3 KTS
150°
South South
East

Wind
Partly Cloudy
Pressure 1029.8 (hPa)- 30.41 (in)
Visibility 10 (mi) - 16.1 (km)

Current Conditions
KTUL
Location 18(mi)
Metar:
KTUL 290553Z 15003KT 10SM FEW160 SCT250 01/M09 A3041 RMK AO2 SLP303 T00111094 10050 20011 400721044 55005
Thu 29th February 05:53 am

Airport
  Metar Aviation API Data Provided by https://www.checkwx.com/ Icons created by weather34.com